Stafford, Texas
Current Conditions -  °F | °C
As of 10:53 AM on Thursday 23 Oct 2014 (Local Time) from KSGR Reporting Station
Clear Clear  
Wind Chill: 71°   Ceiling: Unl
Heat Index: 71°   Visibility: 10mi
Dew Point: 55°   Wind: 3mph
Humidity: 57%   Direction: 70°ENE
Pressure: 30.14"   Gusts: NA
Location:  29.61°N, 95.55°W
Report Text: KSGR 231553Z 07003KT 10SM CLR 22/13 A3014 RMK AO2 SLP206 T02170128
Loading
Personal Weather Stations






























Interactive Weather Map
Tropical Storm Tracking
New forecast layout! Learn more

10-Day Weather Forecast

Advertisements
Track Severe Weather on mobile